sensor_id;sensor_type;location;lat;lon;timestamp;P1;durP1;ratioP1;P2;durP2;ratioP2
44376;SDS011;30093;0.000;0.000;2022-10-16T00:02:46;26.77;;;16.38;;
44376;SDS011;30093;0.000;0.000;2022-10-16T00:06:35;22.75;;;15.90;;
44376;SDS011;30093;0.000;0.000;2022-10-16T00:10:24;20.17;;;16.15;;
44376;SDS011;30093;0.000;0.000;2022-10-16T00:14:14;28.88;;;17.58;;
44376;SDS011;30093;0.000;0.000;2022-10-16T00:18:03;21.83;;;15.52;;
44376;SDS011;30093;0.000;0.000;2022-10-16T00:21:53;19.70;;;15.10;;
44376;SDS011;30093;0.000;0.000;2022-10-16T00:26:04;21.52;;;13.77;;
44376;SDS011;30093;0.000;0.000;2022-10-16T00:29:55;18.00;;;14.07;;
44376;SDS011;30093;0.000;0.000;2022-10-16T00:33:43;21.33;;;13.48;;
44376;SDS011;30093;0.000;0.000;2022-10-16T00:37:31;17.00;;;14.10;;
44376;SDS011;30093;0.000;0.000;2022-10-16T00:41:20;19.65;;;15.48;;
44376;SDS011;30093;0.000;0.000;2022-10-16T00:45:10;17.13;;;12.77;;
44376;SDS011;30093;0.000;0.000;2022-10-16T00:52:54;19.05;;;13.30;;
44376;SDS011;30093;0.000;0.000;2022-10-16T00:56:43;18.27;;;13.82;;
44376;SDS011;30093;0.000;0.000;2022-10-16T01:00:33;15.25;;;12.25;;
44376;SDS011;30093;0.000;0.000;2022-10-16T01:04:22;19.25;;;12.68;;
44376;SDS011;30093;0.000;0.000;2022-10-16T01:08:12;19.25;;;11.88;;
44376;SDS011;30093;0.000;0.000;2022-10-16T01:12:20;18.35;;;13.93;;
44376;SDS011;30093;0.000;0.000;2022-10-16T01:16:34;15.90;;;13.80;;
44376;SDS011;30093;0.000;0.000;2022-10-16T01:20:30;18.38;;;12.30;;
44376;SDS011;30093;0.000;0.000;2022-10-16T01:24:45;20.00;;;12.95;;
44376;SDS011;30093;0.000;0.000;2022-10-16T01:29:00;16.48;;;13.15;;
44376;SDS011;30093;0.000;0.000;2022-10-16T01:36:50;15.75;;;12.70;;
44376;SDS011;30093;0.000;0.000;2022-10-16T01:40:44;17.60;;;13.55;;
44376;SDS011;30093;0.000;0.000;2022-10-16T01:44:38;18.17;;;13.43;;
44376;SDS011;30093;0.000;0.000;2022-10-16T01:48:29;19.20;;;14.48;;
44376;SDS011;30093;0.000;0.000;2022-10-16T01:52:21;16.55;;;14.27;;
44376;SDS011;30093;0.000;0.000;2022-10-16T01:56:13;21.70;;;13.57;;
44376;SDS011;30093;0.000;0.000;2022-10-16T02:00:06;20.40;;;14.02;;
44376;SDS011;30093;0.000;0.000;2022-10-16T02:04:08;17.40;;;14.52;;
44376;SDS011;30093;0.000;0.000;2022-10-16T02:08:17;19.85;;;13.95;;
44376;SDS011;30093;0.000;0.000;2022-10-16T02:12:08;18.45;;;13.25;;
44376;SDS011;30093;0.000;0.000;2022-10-16T02:16:01;17.75;;;13.73;;
44376;SDS011;30093;0.000;0.000;2022-10-16T02:19:50;16.77;;;13.15;;
44376;SDS011;30093;0.000;0.000;2022-10-16T02:23:54;14.75;;;12.80;;
44376;SDS011;30093;0.000;0.000;2022-10-16T02:32:05;17.70;;;12.75;;
44376;SDS011;30093;0.000;0.000;2022-10-16T02:35:56;16.90;;;12.75;;
44376;SDS011;30093;0.000;0.000;2022-10-16T02:39:45;19.77;;;15.93;;
44376;SDS011;30093;0.000;0.000;2022-10-16T02:43:34;19.63;;;14.75;;
44376;SDS011;30093;0.000;0.000;2022-10-16T02:47:23;20.60;;;14.10;;
44376;SDS011;30093;0.000;0.000;2022-10-16T02:51:11;18.35;;;12.70;;
44376;SDS011;30093;0.000;0.000;2022-10-16T02:54:59;17.92;;;13.40;;
44376;SDS011;30093;0.000;0.000;2022-10-16T02:58:48;18.98;;;12.18;;
44376;SDS011;30093;0.000;0.000;2022-10-16T03:02:37;16.15;;;11.73;;
44376;SDS011;30093;0.000;0.000;2022-10-16T03:06:26;16.38;;;12.32;;
44376;SDS011;30093;0.000;0.000;2022-10-16T03:10:14;15.52;;;10.68;;
44376;SDS011;30093;0.000;0.000;2022-10-16T03:14:03;12.57;;;10.10;;
44376;SDS011;30093;0.000;0.000;2022-10-16T03:17:51;16.48;;;12.45;;
44376;SDS011;30093;0.000;0.000;2022-10-16T03:21:39;16.02;;;13.13;;
44376;SDS011;30093;0.000;0.000;2022-10-16T03:25:26;19.92;;;11.85;;
44376;SDS011;30093;0.000;0.000;2022-10-16T03:29:15;22.33;;;11.70;;
44376;SDS011;30093;0.000;0.000;2022-10-16T03:33:03;15.50;;;11.50;;
44376;SDS011;30093;0.000;0.000;2022-10-16T03:36:50;16.30;;;10.60;;
44376;SDS011;30093;0.000;0.000;2022-10-16T03:40:40;14.77;;;11.50;;
44376;SDS011;30093;0.000;0.000;2022-10-16T03:44:28;17.65;;;11.20;;
44376;SDS011;30093;0.000;0.000;2022-10-16T03:48:16;14.23;;;10.82;;
44376;SDS011;30093;0.000;0.000;2022-10-16T03:52:06;15.63;;;10.02;;
44376;SDS011;30093;0.000;0.000;2022-10-16T03:55:54;14.70;;;10.65;;
44376;SDS011;30093;0.000;0.000;2022-10-16T03:59:42;13.30;;;9.55;;
44376;SDS011;30093;0.000;0.000;2022-10-16T04:03:31;15.95;;;10.63;;
44376;SDS011;30093;0.000;0.000;2022-10-16T04:07:20;19.30;;;10.98;;
44376;SDS011;30093;0.000;0.000;2022-10-16T04:11:09;16.63;;;10.18;;
44376;SDS011;30093;0.000;0.000;2022-10-16T04:14:57;14.82;;;10.48;;
44376;SDS011;30093;0.000;0.000;2022-10-16T04:18:45;14.65;;;10.18;;
44376;SDS011;30093;0.000;0.000;2022-10-16T04:22:33;15.07;;;10.63;;
44376;SDS011;30093;0.000;0.000;2022-10-16T04:26:22;12.85;;;10.65;;
44376;SDS011;30093;0.000;0.000;2022-10-16T04:30:10;16.25;;;11.00;;
44376;SDS011;30093;0.000;0.000;2022-10-16T04:33:59;13.88;;;10.25;;
44376;SDS011;30093;0.000;0.000;2022-10-16T04:37:47;15.70;;;10.18;;
44376;SDS011;30093;0.000;0.000;2022-10-16T04:41:36;16.70;;;11.05;;
44376;SDS011;30093;0.000;0.000;2022-10-16T04:45:24;13.05;;;10.32;;
44376;SDS011;30093;0.000;0.000;2022-10-16T04:49:12;16.67;;;11.35;;
44376;SDS011;30093;0.000;0.000;2022-10-16T04:53:01;18.77;;;10.85;;
44376;SDS011;30093;0.000;0.000;2022-10-16T04:56:49;13.68;;;10.30;;
44376;SDS011;30093;0.000;0.000;2022-10-16T05:00:39;18.48;;;10.88;;
44376;SDS011;30093;0.000;0.000;2022-10-16T05:04:28;17.65;;;11.23;;
44376;SDS011;30093;0.000;0.000;2022-10-16T05:08:16;17.80;;;12.48;;
44376;SDS011;30093;0.000;0.000;2022-10-16T05:12:05;19.45;;;11.90;;
44376;SDS011;30093;0.000;0.000;2022-10-16T05:15:54;18.92;;;11.90;;
44376;SDS011;30093;0.000;0.000;2022-10-16T05:19:43;16.50;;;11.55;;
44376;SDS011;30093;0.000;0.000;2022-10-16T05:23:35;15.20;;;10.70;;
44376;SDS011;30093;0.000;0.000;2022-10-16T05:27:24;15.23;;;9.63;;
44376;SDS011;30093;0.000;0.000;2022-10-16T05:31:12;15.80;;;10.88;;
44376;SDS011;30093;0.000;0.000;2022-10-16T05:35:01;16.52;;;11.57;;
44376;SDS011;30093;0.000;0.000;2022-10-16T05:38:50;14.60;;;10.73;;
44376;SDS011;30093;0.000;0.000;2022-10-16T05:42:39;15.95;;;10.50;;
44376;SDS011;30093;0.000;0.000;2022-10-16T05:46:29;18.52;;;11.10;;
44376;SDS011;30093;0.000;0.000;2022-10-16T05:50:17;17.13;;;11.23;;
44376;SDS011;30093;0.000;0.000;2022-10-16T05:54:05;19.33;;;11.63;;
44376;SDS011;30093;0.000;0.000;2022-10-16T05:57:56;17.77;;;12.23;;
44376;SDS011;30093;0.000;0.000;2022-10-16T06:01:45;18.10;;;11.10;;
44376;SDS011;30093;0.000;0.000;2022-10-16T06:05:33;14.18;;;10.52;;
44376;SDS011;30093;0.000;0.000;2022-10-16T06:09:22;12.88;;;10.55;;
44376;SDS011;30093;0.000;0.000;2022-10-16T06:13:11;14.65;;;10.48;;
44376;SDS011;30093;0.000;0.000;2022-10-16T06:17:00;13.93;;;11.50;;
44376;SDS011;30093;0.000;0.000;2022-10-16T06:20:48;21.88;;;12.63;;
44376;SDS011;30093;0.000;0.000;2022-10-16T06:24:37;15.90;;;12.18;;
44376;SDS011;30093;0.000;0.000;2022-10-16T06:28:26;15.15;;;11.18;;
44376;SDS011;30093;0.000;0.000;2022-10-16T06:32:15;17.65;;;11.65;;
44376;SDS011;30093;0.000;0.000;2022-10-16T06:36:08;16.05;;;11.32;;
44376;SDS011;30093;0.000;0.000;2022-10-16T06:39:58;19.92;;;10.98;;
44376;SDS011;30093;0.000;0.000;2022-10-16T06:43:47;13.10;;;10.70;;
44376;SDS011;30093;0.000;0.000;2022-10-16T06:47:37;17.42;;;10.88;;
44376;SDS011;30093;0.000;0.000;2022-10-16T06:51:26;21.00;;;11.25;;
44376;SDS011;30093;0.000;0.000;2022-10-16T06:55:15;15.93;;;11.43;;
44376;SDS011;30093;0.000;0.000;2022-10-16T06:59:04;12.02;;;9.88;;
44376;SDS011;30093;0.000;0.000;2022-10-16T07:02:52;17.40;;;11.55;;
44376;SDS011;30093;0.000;0.000;2022-10-16T07:06:41;21.40;;;11.13;;
44376;SDS011;30093;0.000;0.000;2022-10-16T07:10:30;16.13;;;11.80;;
44376;SDS011;30093;0.000;0.000;2022-10-16T07:14:19;15.20;;;12.05;;
44376;SDS011;30093;0.000;0.000;2022-10-16T07:18:08;19.70;;;12.07;;
44376;SDS011;30093;0.000;0.000;2022-10-16T07:21:57;19.20;;;11.85;;
44376;SDS011;30093;0.000;0.000;2022-10-16T07:25:45;14.55;;;12.82;;
44376;SDS011;30093;0.000;0.000;2022-10-16T07:29:41;16.45;;;12.43;;
44376;SDS011;30093;0.000;0.000;2022-10-16T07:33:31;18.67;;;14.15;;
44376;SDS011;30093;0.000;0.000;2022-10-16T07:37:21;18.13;;;12.88;;
44376;SDS011;30093;0.000;0.000;2022-10-16T07:41:11;17.77;;;14.55;;
44376;SDS011;30093;0.000;0.000;2022-10-16T07:45:01;16.88;;;14.80;;
44376;SDS011;30093;0.000;0.000;2022-10-16T07:48:50;22.23;;;14.73;;
44376;SDS011;30093;0.000;0.000;2022-10-16T07:52:38;22.75;;;14.48;;
44376;SDS011;30093;0.000;0.000;2022-10-16T07:56:26;26.55;;;15.10;;
44376;SDS011;30093;0.000;0.000;2022-10-16T08:00:15;23.42;;;15.13;;
44376;SDS011;30093;0.000;0.000;2022-10-16T08:04:04;21.00;;;15.18;;
44376;SDS011;30093;0.000;0.000;2022-10-16T08:07:53;17.45;;;14.45;;
44376;SDS011;30093;0.000;0.000;2022-10-16T08:11:41;20.30;;;13.75;;
44376;SDS011;30093;0.000;0.000;2022-10-16T08:15:29;67.78;;;34.10;;
44376;SDS011;30093;0.000;0.000;2022-10-16T08:19:17;56.28;;;29.33;;
44376;SDS011;30093;0.000;0.000;2022-10-16T08:23:05;33.35;;;19.73;;
44376;SDS011;30093;0.000;0.000;2022-10-16T08:26:54;15.88;;;12.68;;
44376;SDS011;30093;0.000;0.000;2022-10-16T08:30:43;19.05;;;12.30;;
44376;SDS011;30093;0.000;0.000;2022-10-16T08:34:31;17.60;;;11.90;;
44376;SDS011;30093;0.000;0.000;2022-10-16T08:38:19;17.92;;;12.57;;
44376;SDS011;30093;0.000;0.000;2022-10-16T08:47:17;14.18;;;11.00;;
44376;SDS011;30093;0.000;0.000;2022-10-16T08:50:49;14.50;;;10.73;;
44376;SDS011;30093;0.000;0.000;2022-10-16T08:54:43;12.13;;;10.00;;
44376;SDS011;30093;0.000;0.000;2022-10-16T08:58:34;11.63;;;9.90;;
44376;SDS011;30093;0.000;0.000;2022-10-16T09:02:31;16.83;;;11.30;;
44376;SDS011;30093;0.000;0.000;2022-10-16T09:06:26;20.50;;;12.00;;
44376;SDS011;30093;0.000;0.000;2022-10-16T09:18:45;16.10;;;10.35;;
44376;SDS011;30093;0.000;0.000;2022-10-16T09:22:36;18.33;;;10.13;;
44376;SDS011;30093;0.000;0.000;2022-10-16T09:26:25;12.73;;;9.40;;
44376;SDS011;30093;0.000;0.000;2022-10-16T09:30:18;12.80;;;10.20;;
44376;SDS011;30093;0.000;0.000;2022-10-16T09:38:20;13.80;;;10.20;;
44376;SDS011;30093;0.000;0.000;2022-10-16T09:42:27;14.55;;;9.68;;
44376;SDS011;30093;0.000;0.000;2022-10-16T09:50:22;16.35;;;10.45;;
44376;SDS011;30093;0.000;0.000;2022-10-16T09:54:19;12.48;;;10.27;;
44376;SDS011;30093;0.000;0.000;2022-10-16T09:58:11;15.05;;;10.55;;
44376;SDS011;30093;0.000;0.000;2022-10-16T10:02:03;14.60;;;11.07;;
44376;SDS011;30093;0.000;0.000;2022-10-16T10:05:59;18.85;;;10.50;;
44376;SDS011;30093;0.000;0.000;2022-10-16T10:09:53;20.70;;;15.43;;
44376;SDS011;30093;0.000;0.000;2022-10-16T10:13:44;20.38;;;13.25;;
44376;SDS011;30093;0.000;0.000;2022-10-16T10:17:32;27.33;;;17.52;;
44376;SDS011;30093;0.000;0.000;2022-10-16T10:21:21;15.50;;;11.23;;
44376;SDS011;30093;0.000;0.000;2022-10-16T10:33:28;17.80;;;10.98;;
44376;SDS011;30093;0.000;0.000;2022-10-16T10:37:31;15.00;;;9.95;;
44376;SDS011;30093;0.000;0.000;2022-10-16T10:41:54;15.50;;;10.65;;
44376;SDS011;30093;0.000;0.000;2022-10-16T10:45:58;12.55;;;10.55;;
44376;SDS011;30093;0.000;0.000;2022-10-16T10:49:57;11.70;;;9.70;;
44376;SDS011;30093;0.000;0.000;2022-10-16T11:02:36;16.13;;;10.77;;
44376;SDS011;30093;0.000;0.000;2022-10-16T11:06:31;11.85;;;10.57;;
44376;SDS011;30093;0.000;0.000;2022-10-16T11:10:33;14.35;;;10.52;;
44376;SDS011;30093;0.000;0.000;2022-10-16T11:19:03;15.77;;;12.80;;
44376;SDS011;30093;0.000;0.000;2022-10-16T11:23:05;31.58;;;23.52;;
44376;SDS011;30093;0.000;0.000;2022-10-16T11:27:09;14.68;;;10.80;;
44376;SDS011;30093;0.000;0.000;2022-10-16T11:31:17;13.27;;;11.15;;
44376;SDS011;30093;0.000;0.000;2022-10-16T11:35:17;15.65;;;11.45;;
44376;SDS011;30093;0.000;0.000;2022-10-16T11:43:12;16.65;;;12.07;;
44376;SDS011;30093;0.000;0.000;2022-10-16T11:55:42;14.05;;;10.55;;
44376;SDS011;30093;0.000;0.000;2022-10-16T11:59:46;13.68;;;10.63;;
44376;SDS011;30093;0.000;0.000;2022-10-16T12:04:02;14.18;;;11.38;;
44376;SDS011;30093;0.000;0.000;2022-10-16T12:08:12;15.32;;;12.13;;
44376;SDS011;30093;0.000;0.000;2022-10-16T12:15:50;14.63;;;11.82;;
44376;SDS011;30093;0.000;0.000;2022-10-16T12:19:39;19.38;;;12.65;;
44376;SDS011;30093;0.000;0.000;2022-10-16T12:23:27;21.13;;;13.18;;
44376;SDS011;30093;0.000;0.000;2022-10-16T12:27:29;16.50;;;11.23;;
44376;SDS011;30093;0.000;0.000;2022-10-16T12:31:20;14.23;;;12.00;;
44376;SDS011;30093;0.000;0.000;2022-10-16T12:35:22;14.40;;;12.48;;
44376;SDS011;30093;0.000;0.000;2022-10-16T12:39:20;12.73;;;11.43;;
44376;SDS011;30093;0.000;0.000;2022-10-16T12:43:59;14.57;;;11.70;;
44376;SDS011;30093;0.000;0.000;2022-10-16T12:51:50;14.93;;;11.95;;
44376;SDS011;30093;0.000;0.000;2022-10-16T12:55:42;16.65;;;11.75;;
44376;SDS011;30093;0.000;0.000;2022-10-16T13:03:58;17.80;;;11.98;;
44376;SDS011;30093;0.000;0.000;2022-10-16T13:16:20;21.13;;;13.23;;
44376;SDS011;30093;0.000;0.000;2022-10-16T13:20:43;11.73;;;9.38;;
44376;SDS011;30093;0.000;0.000;2022-10-16T13:28:51;14.18;;;10.02;;
44376;SDS011;30093;0.000;0.000;2022-10-16T13:32:39;14.35;;;10.82;;
44376;SDS011;30093;0.000;0.000;2022-10-16T13:36:42;13.23;;;10.75;;
44376;SDS011;30093;0.000;0.000;2022-10-16T13:40:35;11.80;;;10.48;;
44376;SDS011;30093;0.000;0.000;2022-10-16T13:44:23;14.15;;;11.05;;
44376;SDS011;30093;0.000;0.000;2022-10-16T13:48:13;13.68;;;10.55;;
44376;SDS011;30093;0.000;0.000;2022-10-16T13:52:02;18.27;;;11.77;;
44376;SDS011;30093;0.000;0.000;2022-10-16T13:55:50;17.63;;;11.10;;
44376;SDS011;30093;0.000;0.000;2022-10-16T13:59:38;18.80;;;11.18;;
44376;SDS011;30093;0.000;0.000;2022-10-16T14:03:28;13.80;;;11.00;;
44376;SDS011;30093;0.000;0.000;2022-10-16T14:07:24;17.48;;;14.85;;
44376;SDS011;30093;0.000;0.000;2022-10-16T14:11:22;15.27;;;10.80;;
44376;SDS011;30093;0.000;0.000;2022-10-16T14:15:18;14.63;;;12.45;;
44376;SDS011;30093;0.000;0.000;2022-10-16T14:19:13;18.35;;;11.35;;
44376;SDS011;30093;0.000;0.000;2022-10-16T14:23:04;15.73;;;11.13;;
44376;SDS011;30093;0.000;0.000;2022-10-16T14:27:33;17.15;;;12.82;;
44376;SDS011;30093;0.000;0.000;2022-10-16T14:31:31;13.30;;;10.05;;
44376;SDS011;30093;0.000;0.000;2022-10-16T14:35:23;14.82;;;10.77;;
44376;SDS011;30093;0.000;0.000;2022-10-16T14:39:17;18.70;;;13.13;;
44376;SDS011;30093;0.000;0.000;2022-10-16T14:43:14;17.05;;;10.77;;
44376;SDS011;30093;0.000;0.000;2022-10-16T14:47:09;16.88;;;10.52;;
44376;SDS011;30093;0.000;0.000;2022-10-16T14:51:05;11.43;;;9.82;;
44376;SDS011;30093;0.000;0.000;2022-10-16T14:54:56;12.50;;;9.30;;
44376;SDS011;30093;0.000;0.000;2022-10-16T14:58:45;14.70;;;10.27;;
44376;SDS011;30093;0.000;0.000;2022-10-16T15:02:34;12.85;;;10.18;;
44376;SDS011;30093;0.000;0.000;2022-10-16T15:06:23;12.13;;;10.27;;
44376;SDS011;30093;0.000;0.000;2022-10-16T15:10:12;12.30;;;9.93;;
44376;SDS011;30093;0.000;0.000;2022-10-16T15:14:02;18.58;;;9.98;;
44376;SDS011;30093;0.000;0.000;2022-10-16T15:17:51;14.32;;;10.00;;
44376;SDS011;30093;0.000;0.000;2022-10-16T15:21:42;14.63;;;10.93;;
44376;SDS011;30093;0.000;0.000;2022-10-16T15:25:32;17.20;;;12.40;;
44376;SDS011;30093;0.000;0.000;2022-10-16T15:29:30;19.67;;;12.85;;
44376;SDS011;30093;0.000;0.000;2022-10-16T15:33:20;20.85;;;16.02;;
44376;SDS011;30093;0.000;0.000;2022-10-16T15:37:10;23.75;;;16.23;;
44376;SDS011;30093;0.000;0.000;2022-10-16T15:41:01;22.70;;;15.63;;
44376;SDS011;30093;0.000;0.000;2022-10-16T15:44:49;25.45;;;16.75;;
44376;SDS011;30093;0.000;0.000;2022-10-16T15:48:37;21.30;;;16.13;;
44376;SDS011;30093;0.000;0.000;2022-10-16T15:52:26;20.63;;;15.70;;
44376;SDS011;30093;0.000;0.000;2022-10-16T15:56:16;21.17;;;15.25;;
44376;SDS011;30093;0.000;0.000;2022-10-16T16:00:06;24.25;;;15.23;;
44376;SDS011;30093;0.000;0.000;2022-10-16T16:03:59;21.92;;;14.77;;
44376;SDS011;30093;0.000;0.000;2022-10-16T16:07:49;21.17;;;16.65;;
44376;SDS011;30093;0.000;0.000;2022-10-16T16:11:38;21.45;;;14.75;;
44376;SDS011;30093;0.000;0.000;2022-10-16T16:15:26;18.77;;;14.93;;
44376;SDS011;30093;0.000;0.000;2022-10-16T16:19:16;20.90;;;16.23;;
44376;SDS011;30093;0.000;0.000;2022-10-16T16:23:08;18.55;;;15.05;;
44376;SDS011;30093;0.000;0.000;2022-10-16T16:26:57;24.75;;;16.20;;
44376;SDS011;30093;0.000;0.000;2022-10-16T16:30:46;21.17;;;16.55;;
44376;SDS011;30093;0.000;0.000;2022-10-16T16:34:38;23.13;;;17.33;;
44376;SDS011;30093;0.000;0.000;2022-10-16T16:38:27;23.75;;;18.42;;
44376;SDS011;30093;0.000;0.000;2022-10-16T16:42:16;23.58;;;18.63;;
44376;SDS011;30093;0.000;0.000;2022-10-16T16:46:05;33.40;;;22.30;;
44376;SDS011;30093;0.000;0.000;2022-10-16T16:49:54;24.65;;;17.73;;
44376;SDS011;30093;0.000;0.000;2022-10-16T16:53:43;27.90;;;19.27;;
44376;SDS011;30093;0.000;0.000;2022-10-16T16:57:37;23.20;;;18.17;;
44376;SDS011;30093;0.000;0.000;2022-10-16T17:01:26;21.38;;;16.92;;
44376;SDS011;30093;0.000;0.000;2022-10-16T17:05:17;28.30;;;17.23;;
44376;SDS011;30093;0.000;0.000;2022-10-16T17:09:06;19.48;;;16.33;;
44376;SDS011;30093;0.000;0.000;2022-10-16T17:12:54;19.30;;;16.27;;
44376;SDS011;30093;0.000;0.000;2022-10-16T17:16:43;22.10;;;17.15;;
44376;SDS011;30093;0.000;0.000;2022-10-16T17:20:35;21.58;;;15.50;;
44376;SDS011;30093;0.000;0.000;2022-10-16T17:24:23;20.60;;;16.15;;
44376;SDS011;30093;0.000;0.000;2022-10-16T17:28:12;20.52;;;17.25;;
44376;SDS011;30093;0.000;0.000;2022-10-16T17:32:00;23.75;;;16.83;;
44376;SDS011;30093;0.000;0.000;2022-10-16T17:35:49;30.17;;;24.00;;
44376;SDS011;30093;0.000;0.000;2022-10-16T17:39:38;19.95;;;16.60;;
44376;SDS011;30093;0.000;0.000;2022-10-16T17:43:26;22.52;;;15.88;;
44376;SDS011;30093;0.000;0.000;2022-10-16T17:47:14;20.77;;;17.10;;
44376;SDS011;30093;0.000;0.000;2022-10-16T17:51:04;25.27;;;16.23;;
44376;SDS011;30093;0.000;0.000;2022-10-16T17:54:54;21.80;;;17.38;;
44376;SDS011;30093;0.000;0.000;2022-10-16T17:58:43;26.63;;;18.13;;
44376;SDS011;30093;0.000;0.000;2022-10-16T18:02:31;32.47;;;20.90;;
44376;SDS011;30093;0.000;0.000;2022-10-16T18:06:20;22.65;;;17.95;;
44376;SDS011;30093;0.000;0.000;2022-10-16T18:10:09;25.70;;;18.42;;
44376;SDS011;30093;0.000;0.000;2022-10-16T18:13:58;24.63;;;17.53;;
44376;SDS011;30093;0.000;0.000;2022-10-16T18:17:47;30.67;;;19.15;;
44376;SDS011;30093;0.000;0.000;2022-10-16T18:21:36;25.33;;;17.83;;
44376;SDS011;30093;0.000;0.000;2022-10-16T18:25:24;26.55;;;19.15;;
44376;SDS011;30093;0.000;0.000;2022-10-16T18:29:12;23.48;;;17.55;;
44376;SDS011;30093;0.000;0.000;2022-10-16T18:33:00;23.02;;;17.33;;
44376;SDS011;30093;0.000;0.000;2022-10-16T18:36:49;24.60;;;16.80;;
44376;SDS011;30093;0.000;0.000;2022-10-16T18:40:38;23.55;;;17.30;;
44376;SDS011;30093;0.000;0.000;2022-10-16T18:44:27;18.52;;;15.32;;
44376;SDS011;30093;0.000;0.000;2022-10-16T18:48:18;20.98;;;16.55;;
44376;SDS011;30093;0.000;0.000;2022-10-16T18:52:06;22.17;;;15.80;;
44376;SDS011;30093;0.000;0.000;2022-10-16T18:55:55;21.38;;;16.58;;
44376;SDS011;30093;0.000;0.000;2022-10-16T18:59:43;31.88;;;17.52;;
44376;SDS011;30093;0.000;0.000;2022-10-16T19:03:32;22.73;;;16.30;;
44376;SDS011;30093;0.000;0.000;2022-10-16T19:07:21;23.35;;;16.52;;
44376;SDS011;30093;0.000;0.000;2022-10-16T19:11:20;20.45;;;17.00;;
44376;SDS011;30093;0.000;0.000;2022-10-16T19:15:10;20.55;;;16.95;;
44376;SDS011;30093;0.000;0.000;2022-10-16T19:18:59;25.02;;;17.40;;
44376;SDS011;30093;0.000;0.000;2022-10-16T19:22:50;21.17;;;16.73;;
44376;SDS011;30093;0.000;0.000;2022-10-16T19:26:41;27.80;;;17.48;;
44376;SDS011;30093;0.000;0.000;2022-10-16T19:30:30;20.85;;;15.07;;
44376;SDS011;30093;0.000;0.000;2022-10-16T19:34:22;22.65;;;15.55;;
44376;SDS011;30093;0.000;0.000;2022-10-16T19:38:09;21.13;;;16.50;;
44376;SDS011;30093;0.000;0.000;2022-10-16T19:41:58;18.65;;;14.73;;
44376;SDS011;30093;0.000;0.000;2022-10-16T19:45:46;21.58;;;15.23;;
44376;SDS011;30093;0.000;0.000;2022-10-16T19:49:34;20.98;;;14.73;;
44376;SDS011;30093;0.000;0.000;2022-10-16T19:53:23;20.90;;;15.38;;
44376;SDS011;30093;0.000;0.000;2022-10-16T19:57:12;17.73;;;14.25;;
44376;SDS011;30093;0.000;0.000;2022-10-16T20:01:01;18.35;;;14.75;;
44376;SDS011;30093;0.000;0.000;2022-10-16T20:04:49;19.13;;;14.68;;
44376;SDS011;30093;0.000;0.000;2022-10-16T20:08:38;20.85;;;14.00;;
44376;SDS011;30093;0.000;0.000;2022-10-16T20:12:27;27.10;;;15.20;;
44376;SDS011;30093;0.000;0.000;2022-10-16T20:16:16;18.70;;;14.80;;
44376;SDS011;30093;0.000;0.000;2022-10-16T20:20:06;23.33;;;16.45;;
44376;SDS011;30093;0.000;0.000;2022-10-16T20:23:55;21.95;;;16.65;;
44376;SDS011;30093;0.000;0.000;2022-10-16T20:27:44;34.35;;;25.77;;
44376;SDS011;30093;0.000;0.000;2022-10-16T20:31:34;19.35;;;16.50;;
44376;SDS011;30093;0.000;0.000;2022-10-16T20:35:23;20.95;;;16.67;;
44376;SDS011;30093;0.000;0.000;2022-10-16T20:39:12;50.83;;;17.47;;
44376;SDS011;30093;0.000;0.000;2022-10-16T20:43:01;24.77;;;17.58;;
44376;SDS011;30093;0.000;0.000;2022-10-16T20:46:50;20.58;;;16.63;;
44376;SDS011;30093;0.000;0.000;2022-10-16T20:50:42;27.58;;;16.30;;
44376;SDS011;30093;0.000;0.000;2022-10-16T20:54:31;25.30;;;17.40;;
44376;SDS011;30093;0.000;0.000;2022-10-16T20:58:20;22.13;;;17.33;;
44376;SDS011;30093;0.000;0.000;2022-10-16T21:02:09;25.65;;;15.02;;
44376;SDS011;30093;0.000;0.000;2022-10-16T21:06:00;19.00;;;16.00;;
44376;SDS011;30093;0.000;0.000;2022-10-16T21:09:49;19.50;;;15.68;;
44376;SDS011;30093;0.000;0.000;2022-10-16T21:13:38;25.70;;;15.57;;
44376;SDS011;30093;0.000;0.000;2022-10-16T21:17:27;24.65;;;16.27;;
44376;SDS011;30093;0.000;0.000;2022-10-16T21:21:23;25.73;;;18.35;;
44376;SDS011;30093;0.000;0.000;2022-10-16T21:25:24;19.27;;;15.40;;
44376;SDS011;30093;0.000;0.000;2022-10-16T21:29:13;18.40;;;14.23;;
44376;SDS011;30093;0.000;0.000;2022-10-16T21:33:02;17.23;;;13.15;;
44376;SDS011;30093;0.000;0.000;2022-10-16T21:36:50;20.10;;;14.20;;
44376;SDS011;30093;0.000;0.000;2022-10-16T21:40:39;17.75;;;13.55;;
44376;SDS011;30093;0.000;0.000;2022-10-16T21:44:27;21.65;;;14.63;;
44376;SDS011;30093;0.000;0.000;2022-10-16T21:48:16;17.83;;;13.23;;
44376;SDS011;30093;0.000;0.000;2022-10-16T21:52:06;18.35;;;13.52;;
44376;SDS011;30093;0.000;0.000;2022-10-16T21:55:54;22.30;;;15.35;;
44376;SDS011;30093;0.000;0.000;2022-10-16T21:59:43;21.23;;;14.38;;
44376;SDS011;30093;0.000;0.000;2022-10-16T22:03:32;16.27;;;14.27;;
44376;SDS011;30093;0.000;0.000;2022-10-16T22:07:20;16.23;;;13.10;;
44376;SDS011;30093;0.000;0.000;2022-10-16T22:11:09;17.48;;;12.77;;
44376;SDS011;30093;0.000;0.000;2022-10-16T22:15:02;18.42;;;14.13;;
44376;SDS011;30093;0.000;0.000;2022-10-16T22:18:51;30.23;;;22.35;;
44376;SDS011;30093;0.000;0.000;2022-10-16T22:22:40;22.58;;;15.80;;
44376;SDS011;30093;0.000;0.000;2022-10-16T22:26:28;17.48;;;14.15;;
44376;SDS011;30093;0.000;0.000;2022-10-16T22:30:17;16.25;;;13.10;;
44376;SDS011;30093;0.000;0.000;2022-10-16T22:34:06;16.42;;;13.40;;
44376;SDS011;30093;0.000;0.000;2022-10-16T22:37:55;19.63;;;13.88;;
44376;SDS011;30093;0.000;0.000;2022-10-16T22:41:44;21.60;;;13.00;;
44376;SDS011;30093;0.000;0.000;2022-10-16T22:45:34;16.45;;;12.82;;
44376;SDS011;30093;0.000;0.000;2022-10-16T22:49:23;19.35;;;14.63;;
44376;SDS011;30093;0.000;0.000;2022-10-16T22:53:12;18.90;;;13.10;;
44376;SDS011;30093;0.000;0.000;2022-10-16T22:57:00;17.65;;;13.88;;
44376;SDS011;30093;0.000;0.000;2022-10-16T23:00:48;16.38;;;13.75;;
44376;SDS011;30093;0.000;0.000;2022-10-16T23:04:37;18.38;;;14.00;;
44376;SDS011;30093;0.000;0.000;2022-10-16T23:08:25;24.13;;;13.80;;
44376;SDS011;30093;0.000;0.000;2022-10-16T23:12:13;22.00;;;14.02;;
44376;SDS011;30093;0.000;0.000;2022-10-16T23:16:01;19.42;;;13.80;;
44376;SDS011;30093;0.000;0.000;2022-10-16T23:19:51;15.60;;;13.73;;
44376;SDS011;30093;0.000;0.000;2022-10-16T23:23:40;18.15;;;13.23;;
44376;SDS011;30093;0.000;0.000;2022-10-16T23:27:29;15.57;;;12.57;;
44376;SDS011;30093;0.000;0.000;2022-10-16T23:31:17;17.30;;;12.40;;
44376;SDS011;30093;0.000;0.000;2022-10-16T23:35:06;20.85;;;14.07;;
44376;SDS011;30093;0.000;0.000;2022-10-16T23:38:55;15.93;;;12.15;;
44376;SDS011;30093;0.000;0.000;2022-10-16T23:42:43;17.83;;;13.00;;
44376;SDS011;30093;0.000;0.000;2022-10-16T23:46:32;16.00;;;12.60;;
44376;SDS011;30093;0.000;0.000;2022-10-16T23:50:20;17.83;;;12.50;;
44376;SDS011;30093;0.000;0.000;2022-10-16T23:54:08;18.35;;;12.40;;
44376;SDS011;30093;0.000;0.000;2022-10-16T23:57:57;17.38;;;12.77;;
